< < Back
Terminal Aerodrome Forecast


Current Version              Previous Versions:   1  2  3  4  5  6  7  8  9  

Terminal Aerodrome Forecast

577
FTUS44 KBMX 232326
TAFMGM
TAF
KMGM 232326Z 2400/2424 09006KT P6SM SCT250
     FM241100 11009KT P6SM SCT015 BKN035
     FM241600 12010KT P6SM SCT025 BKN050=



Latest METAR

729
SAUS80 KWBC 241300 CCA
MTRMGM
METAR KMGM 241253Z 11008KT 10SM CLR 22/18 A3025 RMK AO2 SLP240
T02220183


USA.gov is the U.S. government's official web portal to all federal, state and local government web resources and services.